Time;durP1;ratioP1;P1;durP2;ratioP2;P2;SDS_P1;SDS_P2;PMS_P1;PMS_P2;Temp;Humidity;BMP_temperature;BMP_pressure;BME280_temperature;BME280_humidity;BME280_pressure;Samples;Min_cycle;Max_cycle;Signal;HPM_P1;HPM_P2
2024/03/03 00:02:12;;;;;;;15.60;9.43;;;10.20;99.90;;;;;;7422601;19;20380;-80
2024/03/03 00:05:05;;;;;;;;;;;;;;;;;;;;;
2024/03/03 00:07:44;;;;;;;;;;;;;;;;;;;;;
2024/03/03 00:10:34;;;;;;;;;;;;;;;;;;;;;
2024/03/03 00:13:24;;;;;;;18.02;10.93;;;10.10;99.90;;;;;;7419064;19;20056;-80
2024/03/03 00:15:56;;;;;;;23.17;12.32;;;10.10;99.90;;;;;;7421628;19;20010;-80
2024/03/03 00:18:42;;;;;;;;;;;;;;;;;;;;;
2024/03/03 00:21:26;;;;;;;;;;;;;;;;;;;;;
2024/03/03 00:24:12;;;;;;;26.15;14.52;;;10.20;99.90;;;;;;7423099;19;20026;-79
2024/03/03 00:26:52;;;;;;;26.58;12.65;;;10.20;99.90;;;;;;7424988;19;20050;-80
2024/03/03 00:29:58;;;;;;;;;;;;;;;;;;;;;
2024/03/03 00:33:21;;;;;;;;;;;;;;;;;;;;;
2024/03/03 00:36:28;;;;;;;;;;;;;;;;;;;;;
2024/03/03 00:39:17;;;;;;;;;;;;;;;;;;;;;
2024/03/03 00:42:04;;;;;;;;;;;;;;;;;;;;;
2024/03/03 00:44:50;;;;;;;;;;;;;;;;;;;;;
2024/03/03 00:47:45;;;;;;;22.25;12.63;;;10.30;99.90;;;;;;7430696;19;20010;-80
2024/03/03 00:50:30;;;;;;;31.63;14.75;;;10.30;99.90;;;;;;7426982;19;20014;-79
2024/03/03 00:53:17;;;;;;;;;;;;;;;;;;;;;
2024/03/03 00:55:54;;;;;;;27.70;16.38;;;10.40;99.90;;;;;;7421955;19;20070;-80
2024/03/03 00:58:31;;;;;;;29.33;14.90;;;10.40;99.90;;;;;;7420590;19;20008;-81
2024/03/03 01:01:41;;;;;;;26.13;17.30;;;10.40;99.90;;;;;;7411687;19;20002;-80
2024/03/03 01:04:15;;;;;;;29.05;17.02;;;10.40;99.90;;;;;;7384754;19;20006;-80
2024/03/03 01:07:21;;;;;;;;;;;;;;;;;;;;;
2024/03/03 01:14:09;;;;;;;;;;;;;;;;;;;;;
2024/03/03 01:17:35;;;;;;;;;;;;;;;;;;;;;
2024/03/03 01:20:14;;;;;;;;;;;;;;;;;;;;;
2024/03/03 01:23:07;;;;;;;26.88;15.35;;;10.30;99.90;;;;;;7419624;19;20315;-79
2024/03/03 01:25:57;;;;;;;;;;;;;;;;;;;;;
2024/03/03 01:28:52;;;;;;;23.38;14.13;;;10.20;99.90;;;;;;7419359;19;20021;-80
2024/03/03 01:31:42;;;;;;;;;;;;;;;;;;;;;
2024/03/03 01:44:07;;;;;;;31.45;17.50;;;10.20;99.90;;;;;;7421404;19;20344;-79
2024/03/03 01:46:45;;;;;;;29.20;17.75;;;10.20;99.90;;;;;;7421258;19;20038;-79
2024/03/03 01:49:30;;;;;;;;;;;;;;;;;;;;;
2024/03/03 01:52:28;;;;;;;;;;;;;;;;;;;;;
2024/03/03 01:55:15;;;;;;;32.17;18.20;;;10.20;99.90;;;;;;7421036;19;20062;-81
2024/03/03 01:58:33;;;;;;;34.63;18.77;;;10.20;99.90;;;;;;7440359;19;20010;-80
2024/03/03 02:01:47;;;;;;;;;;;;;;;;;;;;;
2024/03/03 02:04:49;;;;;;;;;;;;;;;;;;;;;
2024/03/03 02:16:55;;;;;;;37.50;21.10;;;10.20;99.90;;;;;;7445683;19;20332;-80
2024/03/03 02:19:25;;;;;;;35.53;20.38;;;10.20;99.90;;;;;;7420537;19;20019;-80
2024/03/03 02:21:57;;;;;;;34.08;20.67;;;10.20;99.90;;;;;;7424220;19;20010;-79
2024/03/03 02:24:26;;;;;;;41.75;20.13;;;10.20;99.90;;;;;;7442368;19;20002;-79
2024/03/03 02:26:54;;;;;;;39.05;20.08;;;10.20;99.90;;;;;;7423059;19;20003;-80
2024/03/03 02:29:23;;;;;;;40.35;20.73;;;10.20;99.90;;;;;;7421386;19;20006;-79
2024/03/03 02:31:52;;;;;;;39.05;21.48;;;10.20;99.90;;;;;;7421894;19;20019;-80
2024/03/03 02:34:21;;;;;;;39.58;21.20;;;10.20;99.90;;;;;;7421410;19;20061;-80
2024/03/03 02:36:50;;;;;;;34.80;20.17;;;10.20;99.90;;;;;;7414403;19;20007;-79
2024/03/03 02:39:21;;;;;;;41.40;21.27;;;10.20;99.90;;;;;;7436361;19;20062;-79
2024/03/03 02:41:50;;;;;;;31.40;18.45;;;10.20;99.90;;;;;;7417097;19;20002;-79
2024/03/03 02:44:19;;;;;;;40.40;18.40;;;10.30;99.90;;;;;;7415790;19;20007;-78
2024/03/03 02:46:48;;;;;;;37.30;19.20;;;10.20;99.90;;;;;;7414170;19;20006;-80
2024/03/03 02:49:17;;;;;;;34.30;18.98;;;10.20;99.90;;;;;;7416337;19;20011;-78
2024/03/03 02:51:46;;;;;;;32.85;19.40;;;10.30;99.90;;;;;;7421219;19;20421;-78
2024/03/03 02:54:15;;;;;;;32.08;19.35;;;10.20;99.90;;;;;;7436622;19;20010;-81
2024/03/03 02:56:46;;;;;;;29.58;17.48;;;10.30;99.90;;;;;;7415470;19;20010;-79
2024/03/03 02:59:15;;;;;;;33.63;18.92;;;10.30;99.90;;;;;;7415416;19;20017;-79
2024/03/03 03:01:44;;;;;;;38.63;19.65;;;10.30;99.90;;;;;;7414201;19;20015;-79
2024/03/03 03:04:12;;;;;;;33.42;18.48;;;10.30;99.90;;;;;;7412494;19;20027;-79
2024/03/03 03:06:42;;;;;;;35.13;17.20;;;10.30;99.90;;;;;;7437091;19;20006;-79
2024/03/03 03:09:10;;;;;;;32.00;18.15;;;10.30;99.90;;;;;;7414574;19;20018;-79
2024/03/03 03:11:39;;;;;;;36.08;17.92;;;10.30;99.90;;;;;;7415022;19;20006;-80
2024/03/03 03:14:10;;;;;;;31.92;17.85;;;10.30;99.90;;;;;;7413002;19;20047;-81
2024/03/03 03:16:43;;;;;;;33.10;16.92;;;10.30;99.90;;;;;;7416033;19;20027;-81
2024/03/03 03:19:11;;;;;;;33.47;16.98;;;10.30;99.90;;;;;;7414269;19;20270;-80
2024/03/03 03:21:40;;;;;;;31.65;18.13;;;10.30;99.90;;;;;;7436551;19;20017;-80
2024/03/03 03:24:09;;;;;;;31.55;17.75;;;10.30;99.90;;;;;;7415298;19;20055;-80
2024/03/03 03:26:38;;;;;;;36.17;18.30;;;10.30;99.90;;;;;;7396013;19;20006;-79
2024/03/03 03:29:07;;;;;;;34.85;18.08;;;10.30;99.90;;;;;;7385870;19;20015;-80
2024/03/03 03:31:38;;;;;;;35.20;17.98;;;10.30;99.90;;;;;;7386044;19;20037;-81
2024/03/03 03:34:07;;;;;;;34.85;19.45;;;10.30;99.90;;;;;;7387924;19;20267;-80
2024/03/03 03:36:36;;;;;;;43.33;21.13;;;10.30;99.90;;;;;;7407077;19;20023;-80
2024/03/03 03:39:10;;;;;;;38.70;21.10;;;10.30;99.90;;;;;;7394071;19;20027;-80
2024/03/03 03:41:46;;;;;;;41.38;20.83;;;10.30;99.90;;;;;;7394346;19;20006;-79
2024/03/03 03:44:15;;;;;;;40.85;19.42;;;10.20;99.90;;;;;;7392406;19;20055;-79
2024/03/03 03:46:46;;;;;;;32.92;20.08;;;10.30;99.90;;;;;;7392260;19;20007;-79
2024/03/03 03:49:16;;;;;;;;;;;10.20;99.90;;;;;;7394756;19;20290;-80
2024/03/03 03:51:45;;;;;;;38.92;19.73;;;10.20;99.90;;;;;;7407880;19;19918;-79
2024/03/03 03:54:14;;;;;;;31.90;18.73;;;10.20;99.90;;;;;;7402583;19;20027;-81
2024/03/03 03:56:43;;;;;;;32.40;17.10;;;10.20;99.90;;;;;;7380879;19;20015;-79
2024/03/03 03:59:11;;;;;;;30.48;15.65;;;10.20;99.90;;;;;;7384688;19;20003;-79
2024/03/03 04:01:40;;;;;;;36.78;16.35;;;10.20;99.90;;;;;;7384080;19;20014;-79
2024/03/03 04:04:14;;;;;;;30.73;16.35;;;10.20;99.90;;;;;;7382949;19;20095;-79
2024/03/03 04:06:42;;;;;;;26.90;15.27;;;10.20;99.90;;;;;;7408724;19;20011;-81
2024/03/03 04:09:12;;;;;;;29.65;16.23;;;10.20;99.90;;;;;;7382753;19;20007;-79
2024/03/03 04:11:41;;;;;;;31.70;16.75;;;10.20;99.90;;;;;;7382460;19;20251;-80
2024/03/03 04:14:09;;;;;;;37.25;16.65;;;10.20;99.90;;;;;;7385602;19;20007;-80
2024/03/03 04:16:38;;;;;;;32.90;16.45;;;10.20;99.90;;;;;;7385703;19;20032;-81
2024/03/03 04:19:07;;;;;;;37.45;19.75;;;10.10;99.90;;;;;;7383184;19;20096;-79
2024/03/03 04:21:43;;;;;;;36.35;19.38;;;10.20;99.90;;;;;;7406226;19;20011;-79
2024/03/03 04:24:11;;;;;;;35.42;17.27;;;10.20;99.90;;;;;;7383315;19;20017;-78
2024/03/03 04:26:42;;;;;;;27.85;15.02;;;10.20;99.90;;;;;;7381946;19;20357;-80
2024/03/03 04:29:10;;;;;;;28.40;15.68;;;10.20;99.90;;;;;;7384298;19;20006;-80
2024/03/03 04:31:45;;;;;;;30.50;14.15;;;10.20;99.90;;;;;;7382705;19;20467;-80
2024/03/03 04:34:14;;;;;;;27.00;14.07;;;10.20;99.90;;;;;;7389567;19;20010;-82
2024/03/03 04:36:48;;;;;;;23.73;14.38;;;10.20;99.90;;;;;;7402210;19;20087;-80
2024/03/03 04:39:19;;;;;;;25.17;14.95;;;10.10;99.90;;;;;;7379807;19;20006;-80
2024/03/03 04:41:48;;;;;;;32.28;14.57;;;10.20;99.90;;;;;;7382216;19;20006;-80
2024/03/03 04:44:19;;;;;;;27.73;14.32;;;10.20;99.90;;;;;;7382542;19;20031;-79
2024/03/03 04:46:48;;;;;;;30.20;16.00;;;10.20;99.90;;;;;;7382525;19;20016;-80
2024/03/03 04:49:16;;;;;;;23.48;11.18;;;10.20;99.90;;;;;;7381583;19;20220;-80
2024/03/03 04:51:48;;;;;;;18.40;10.70;;;10.20;99.90;;;;;;7401768;19;20015;-79
2024/03/03 04:54:16;;;;;;;;;;;10.30;99.90;;;;;;7384579;19;20023;-80
2024/03/03 04:56:45;;;;;;;18.15;10.32;;;10.30;99.90;;;;;;7385297;19;19914;-80
2024/03/03 04:59:14;;;;;;;21.52;11.18;;;10.20;99.90;;;;;;7384320;19;20010;-79
2024/03/03 05:01:43;;;;;;;20.27;10.30;;;10.20;99.90;;;;;;7383425;19;20010;-79
2024/03/03 05:04:13;;;;;;;19.67;11.25;;;10.20;99.90;;;;;;7383400;19;20006;-79
2024/03/03 05:06:50;;;;;;;22.25;12.50;;;10.20;99.90;;;;;;7407320;19;20219;-80
2024/03/03 05:09:19;;;;;;;33.00;15.63;;;10.10;99.90;;;;;;7383230;19;20027;-80
2024/03/03 05:11:50;;;;;;;25.85;14.43;;;10.20;99.90;;;;;;7385384;19;20014;-79
2024/03/03 05:14:19;;;;;;;24.63;13.38;;;10.20;99.90;;;;;;7383103;19;20408;-80
2024/03/03 05:16:48;;;;;;;23.67;13.88;;;10.10;99.90;;;;;;7381072;19;20010;-78
2024/03/03 05:19:16;;;;;;;28.38;14.07;;;10.10;99.90;;;;;;7382446;19;20007;-79
2024/03/03 05:21:45;;;;;;;24.38;12.75;;;10.10;99.90;;;;;;7403414;19;20024;-79
2024/03/03 05:24:17;;;;;;;31.35;14.25;;;10.10;99.90;;;;;;7380892;19;20075;-79
2024/03/03 05:26:45;;;;;;;24.35;13.63;;;10.20;99.90;;;;;;7381174;19;20007;-80
2024/03/03 05:29:14;;;;;;;27.02;14.43;;;10.20;99.90;;;;;;7382337;19;20002;-79
2024/03/03 05:31:45;;;;;;;22.17;13.70;;;10.20;99.90;;;;;;7380901;19;20020;-79
2024/03/03 05:34:15;;;;;;;24.17;13.85;;;10.20;99.90;;;;;;7381644;19;20010;-79
2024/03/03 05:36:44;;;;;;;31.42;14.32;;;10.20;99.90;;;;;;7402314;19;20062;-78
2024/03/03 05:39:16;;;;;;;26.20;13.98;;;10.20;99.90;;;;;;7381130;19;20016;-79
2024/03/03 05:41:46;;;;;;;22.15;12.43;;;10.20;99.90;;;;;;7380295;19;20074;-79
2024/03/03 05:44:14;;;;;;;26.50;11.65;;;10.20;99.90;;;;;;7380158;19;20007;-78
2024/03/03 05:46:43;;;;;;;27.85;12.48;;;10.10;99.90;;;;;;7380985;19;20071;-79
2024/03/03 05:49:12;;;;;;;22.25;11.75;;;10.10;99.90;;;;;;7381297;19;20009;-80
2024/03/03 05:51:40;;;;;;;21.30;9.30;;;10.10;99.90;;;;;;7404959;19;20003;-79
2024/03/03 05:54:09;;;;;;;21.88;10.00;;;10.10;99.90;;;;;;7384425;19;20006;-79
2024/03/03 05:56:41;;;;;;;17.27;9.43;;;10.10;99.90;;;;;;7379868;19;20048;-79
2024/03/03 05:59:09;;;;;;;17.25;10.38;;;10.10;99.90;;;;;;7383173;19;20023;-80
2024/03/03 06:01:38;;;;;;;14.73;9.43;;;10.10;99.90;;;;;;7379909;19;20389;-82
2024/03/03 06:04:08;;;;;;;17.10;9.77;;;10.00;99.90;;;;;;7382714;19;20007;-81
2024/03/03 06:06:36;;;;;;;20.70;10.25;;;10.00;99.90;;;;;;7405310;19;20006;-80
2024/03/03 06:09:08;;;;;;;21.70;9.95;;;10.00;99.90;;;;;;7381760;19;20007;-80
2024/03/03 06:11:37;;;;;;;22.95;10.45;;;9.90;99.90;;;;;;7382544;19;20010;-78
2024/03/03 06:14:10;;;;;;;27.02;11.10;;;9.90;99.90;;;;;;7382140;19;20014;-79
2024/03/03 06:16:39;;;;;;;19.75;10.32;;;9.90;99.90;;;;;;7381814;19;20060;-79
2024/03/03 06:19:08;;;;;;;19.92;10.20;;;9.90;99.90;;;;;;7382715;19;20086;-80
2024/03/03 06:21:37;;;;;;;25.45;10.90;;;9.90;99.90;;;;;;7405520;19;20212;-80
2024/03/03 06:24:06;;;;;;;26.92;11.13;;;9.90;99.90;;;;;;7381525;19;20239;-81
2024/03/03 06:26:35;;;;;;;27.42;11.10;;;9.90;99.90;;;;;;7383746;19;20095;-81
2024/03/03 06:29:03;;;;;;;21.63;9.75;;;9.90;99.90;;;;;;7382334;19;20006;-81
2024/03/03 06:31:35;;;;;;;20.55;11.10;;;9.90;99.90;;;;;;7382213;19;20103;-80
2024/03/03 06:34:03;;;;;;;26.52;10.20;;;10.00;99.90;;;;;;7396575;19;20012;-79
2024/03/03 06:36:32;;;;;;;22.73;11.88;;;9.90;99.90;;;;;;7420851;19;20007;-78
2024/03/03 06:39:01;;;;;;;24.30;12.10;;;9.90;99.90;;;;;;7402333;19;20029;-79
2024/03/03 06:41:30;;;;;;;24.65;12.02;;;9.90;99.90;;;;;;7402966;19;20007;-78
2024/03/03 06:43:59;;;;;;;19.17;11.48;;;9.90;99.90;;;;;;7402330;19;20067;-79
2024/03/03 06:46:28;;;;;;;19.33;11.23;;;9.80;99.90;;;;;;7401973;19;20022;-79
2024/03/03 06:48:59;;;;;;;22.42;11.80;;;9.80;99.90;;;;;;7391576;19;20003;-78
2024/03/03 06:51:28;;;;;;;;;;;9.80;99.90;;;;;;7403563;19;20018;-79
2024/03/03 06:53:56;;;;;;;19.80;10.30;;;9.80;99.90;;;;;;7381018;19;19911;-79
2024/03/03 06:56:26;;;;;;;32.58;11.75;;;9.70;99.90;;;;;;7379863;19;20425;-80
2024/03/03 06:58:54;;;;;;;23.35;11.90;;;9.70;99.90;;;;;;7384322;19;20006;-79
2024/03/03 07:01:23;;;;;;;24.95;11.85;;;9.80;99.90;;;;;;7387470;19;20006;-79
2024/03/03 07:06:38;;;;;;;24.13;12.20;;;9.80;99.90;;;;;;7387014;19;20352;-79
2024/03/03 07:09:08;;;;;;;22.88;12.65;;;9.60;99.90;;;;;;7386262;19;20020;-78
2024/03/03 07:11:36;;;;;;;30.98;12.73;;;9.70;99.90;;;;;;7386264;19;20026;-78
2024/03/03 07:14:05;;;;;;;22.60;11.75;;;9.70;99.90;;;;;;7386725;19;20357;-80
2024/03/03 07:16:36;;;;;;;24.50;12.45;;;9.70;99.90;;;;;;7384131;19;20334;-79
2024/03/03 07:19:04;;;;;;;22.83;12.35;;;9.70;99.90;;;;;;7387557;19;20276;-79
2024/03/03 07:21:35;;;;;;;23.75;11.60;;;9.80;99.90;;;;;;7406906;19;20369;-79
2024/03/03 07:24:07;;;;;;;29.25;13.13;;;9.80;99.90;;;;;;7386607;19;20010;-79
2024/03/03 07:26:36;;;;;;;23.33;12.80;;;9.80;99.90;;;;;;7385797;19;20023;-78
2024/03/03 07:29:05;;;;;;;25.88;12.02;;;9.90;99.90;;;;;;7385893;19;20006;-79
2024/03/03 07:31:34;;;;;;;21.75;11.75;;;9.80;99.90;;;;;;7385228;19;20003;-78
2024/03/03 07:34:03;;;;;;;23.13;12.32;;;9.90;99.90;;;;;;7382783;19;20010;-80
2024/03/03 07:36:32;;;;;;;21.35;11.98;;;9.90;99.90;;;;;;7407219;19;20054;-80
2024/03/03 07:39:01;;;;;;;21.48;12.13;;;9.90;99.90;;;;;;7388851;19;20007;-79
2024/03/03 07:41:32;;;;;;;25.80;12.57;;;9.90;99.90;;;;;;7389128;19;20003;-79
2024/03/03 07:44:03;;;;;;;29.85;11.38;;;9.90;99.90;;;;;;7386426;19;20128;-79
2024/03/03 07:46:34;;;;;;;21.23;10.75;;;9.90;99.90;;;;;;7387084;19;20011;-80
2024/03/03 07:49:03;;;;;;;19.98;10.60;;;9.80;99.90;;;;;;7389713;19;20018;-78
2024/03/03 07:51:31;;;;;;;20.48;10.57;;;9.90;99.90;;;;;;7408071;19;20019;-80
2024/03/03 07:54:00;;;;;;;24.50;11.15;;;9.80;99.90;;;;;;7387279;19;20023;-80
2024/03/03 07:56:32;;;;;;;30.25;11.30;;;9.80;99.90;;;;;;7386883;19;20007;-79
2024/03/03 07:59:05;;;;;;;954.17;85.82;;;9.80;99.90;;;;;;7385312;19;20030;-79
2024/03/03 08:01:35;;;;;;;275.00;23.17;;;9.90;99.90;;;;;;7385332;19;20003;-79
2024/03/03 08:04:04;;;;;;;466.10;33.78;;;9.80;99.90;;;;;;7383677;19;20010;-78
2024/03/03 08:06:32;;;;;;;1301.07;93.57;;;9.90;99.90;;;;;;7406074;19;20408;-79
2024/03/03 08:09:03;;;;;;;31.45;12.80;;;9.90;99.90;;;;;;7386069;19;20035;-79
2024/03/03 08:14:10;;;;;;;30.05;15.65;;;9.90;99.90;;;;;;7321210;19;20018;-80
2024/03/03 08:16:39;;;;;;;34.85;14.55;;;10.00;99.90;;;;;;7402798;19;20020;-80
2024/03/03 08:19:08;;;;;;;22.85;12.45;;;10.10;99.90;;;;;;7383913;19;20006;-80
2024/03/03 08:21:37;;;;;;;25.20;12.07;;;10.00;99.90;;;;;;7405596;19;20035;-79
2024/03/03 08:24:09;;;;;;;20.88;11.30;;;10.00;99.90;;;;;;7384286;19;20021;-81
2024/03/03 08:27:07;;;;;;;31.98;13.05;;;9.90;99.90;;;;;;7385957;19;20006;-82
2024/03/03 08:30:04;;;;;;;33.95;10.93;;;10.00;99.90;;;;;;7382976;19;20007;-83
2024/03/03 08:32:51;;;;;;;;;;;;;;;;;;;;;
2024/03/03 08:35:24;;;;;;;26.02;11.50;;;10.10;99.90;;;;;;7384245;19;19999;-82
2024/03/03 08:37:56;;;;;;;20.30;10.93;;;10.20;99.90;;;;;;7383034;19;20006;-83
2024/03/03 08:40:25;;;;;;;23.27;11.05;;;10.10;99.90;;;;;;7385996;19;20024;-83
2024/03/03 08:43:22;;;;;;;21.45;10.82;;;10.10;99.90;;;;;;7412570;19;20010;-82
2024/03/03 08:45:54;;;;;;;18.95;9.32;;;10.10;99.90;;;;;;7390846;19;20007;-82
2024/03/03 08:48:24;;;;;;;;;;;9.90;99.90;;;;;;7391590;19;20010;-83
2024/03/03 08:51:00;;;;;;;14.23;8.98;;;10.00;99.90;;;;;;7389894;19;19914;-81
2024/03/03 08:53:33;;;;;;;21.85;10.55;;;10.10;99.90;;;;;;7386824;19;20031;-82
2024/03/03 08:56:04;;;;;;;17.33;9.00;;;10.10;99.90;;;;;;7390400;19;20035;-82
2024/03/03 08:58:46;;;;;;;16.65;8.73;;;10.10;99.90;;;;;;7389830;19;20024;-83
2024/03/03 09:01:42;;;;;;;17.02;7.35;;;10.20;99.90;;;;;;7389261;19;20002;-83
2024/03/03 09:04:41;;;;;;;18.20;7.50;;;10.00;99.90;;;;;;7386819;19;20010;-82
2024/03/03 09:16:38;;;;;;;22.45;6.78;;;10.00;99.90;;;;;;7400276;19;19991;-81
2024/03/03 09:19:11;;;;;;;15.90;7.15;;;10.00;99.90;;;;;;7427413;19;20003;-81
2024/03/03 09:21:50;;;;;;;14.10;5.95;;;10.00;99.90;;;;;;7407692;19;20035;-82
2024/03/03 09:24:35;;;;;;;11.35;6.05;;;10.00;99.90;;;;;;7406468;19;20014;-82
2024/03/03 09:27:27;;;;;;;16.50;5.43;;;10.10;99.90;;;;;;7397378;19;20083;-82
2024/03/03 09:30:17;;;;;;;14.57;6.13;;;10.10;99.90;;;;;;7383396;19;20010;-82
2024/03/03 09:39:26;;;;;;;12.32;5.53;;;10.10;99.90;;;;;;7357072;19;20029;-83
2024/03/03 09:45:47;;;;;;;;;;;;;;;;;;;;;
2024/03/03 09:52:26;;;;;;;9.00;5.47;;;10.30;99.90;;;;;;7382005;19;20015;-82
2024/03/03 10:27:18;;;;;;;9.18;3.83;;;10.80;99.90;;;;;;7412788;19;20239;-82
2024/03/03 10:36:32;;;;;;;21.00;4.18;;;10.50;99.90;;;;;;7435044;19;20007;-82
2024/03/03 10:39:19;;;;;;;7.00;3.40;;;10.30;99.90;;;;;;7420886;19;20014;-82
2024/03/03 10:41:57;;;;;;;8.00;3.35;;;10.50;99.90;;;;;;7418108;19;20074;-82
2024/03/03 10:44:32;;;;;;;9.77;3.85;;;10.70;99.90;;;;;;7415351;19;19998;-83
2024/03/03 10:47:07;;;;;;;8.70;4.13;;;10.70;99.90;;;;;;7413473;19;20006;-82
2024/03/03 10:49:36;;;;;;;13.25;4.60;;;10.60;99.90;;;;;;7389242;19;20017;-82
2024/03/03 10:52:11;;;;;;;9.07;4.00;;;10.70;99.90;;;;;;7443405;19;20030;-83
2024/03/03 10:54:43;;;;;;;10.32;3.88;;;10.80;99.90;;;;;;7419440;19;20014;-82
2024/03/03 10:57:19;;;;;;;8.27;3.65;;;10.90;99.90;;;;;;7416656;19;20034;-81
2024/03/03 11:03:54;;;;;;;12.30;4.07;;;10.60;99.90;;;;;;7411091;19;20028;-82
2024/03/03 11:06:36;;;;;;;9.38;4.35;;;10.70;99.90;;;;;;7418970;19;20351;-83
2024/03/03 11:12:30;;;;;;;10.48;5.13;;;11.00;99.90;;;;;;7413798;19;20015;-78
2024/03/03 11:15:00;;;;;;;12.80;5.82;;;11.00;99.90;;;;;;7399284;19;20074;-79
2024/03/03 11:17:36;;;;;;;17.37;5.43;;;11.00;99.90;;;;;;7382228;19;20024;-78
2024/03/03 11:22:47;;;;;;;15.23;5.65;;;11.10;99.90;;;;;;7316071;19;20301;-78
2024/03/03 11:28:31;;;;;;;19.00;6.67;;;10.90;99.90;;;;;;7384657;19;19999;-77
2024/03/03 11:30:59;;;;;;;18.48;6.30;;;11.00;99.90;;;;;;7407419;19;20335;-79
2024/03/03 11:33:31;;;;;;;17.27;5.90;;;11.00;99.90;;;;;;7384755;19;20006;-81
2024/03/03 11:36:01;;;;;;;14.10;5.85;;;11.10;99.90;;;;;;7391067;19;20010;-81
2024/03/03 11:38:43;;;;;;;17.63;6.20;;;11.00;99.90;;;;;;7389181;19;20019;-78
2024/03/03 11:41:12;;;;;;;13.18;5.47;;;10.90;99.90;;;;;;7384525;19;20019;-77
2024/03/03 11:43:44;;;;;;;10.40;5.63;;;10.90;99.90;;;;;;7386404;19;20058;-78
2024/03/03 11:46:33;;;;;;;15.15;5.60;;;10.90;99.90;;;;;;7399433;19;20086;-77
2024/03/03 11:49:03;;;;;;;14.07;5.95;;;10.90;99.90;;;;;;7408372;19;20054;-78
2024/03/03 11:51:32;;;;;;;12.40;5.35;;;10.90;99.90;;;;;;7390763;19;20037;-78
2024/03/03 11:54:02;;;;;;;10.02;4.88;;;11.00;99.90;;;;;;7387711;19;20006;-78
2024/03/03 11:56:32;;;;;;;10.05;5.15;;;11.10;99.90;;;;;;7386118;19;20013;-78
2024/03/03 11:59:04;;;;;;;12.00;4.80;;;11.10;99.90;;;;;;7385183;19;19999;-78
2024/03/03 12:01:34;;;;;;;9.82;4.68;;;11.10;99.90;;;;;;7387283;19;20023;-79
2024/03/03 12:04:03;;;;;;;9.07;4.50;;;11.20;99.90;;;;;;7411220;19;20014;-78
2024/03/03 12:06:32;;;;;;;13.30;5.00;;;11.20;99.90;;;;;;7389806;19;20010;-77
2024/03/03 12:09:07;;;;;;;13.35;4.35;;;11.20;99.90;;;;;;7389487;19;20303;-79
2024/03/03 12:11:36;;;;;;;12.23;4.03;;;11.20;99.90;;;;;;7387499;19;20002;-81
2024/03/03 12:14:07;;;;;;;9.10;3.58;;;11.20;99.90;;;;;;7386169;19;20078;-77
2024/03/03 12:16:36;;;;;;;7.65;4.18;;;11.00;99.90;;;;;;7385461;19;20022;-77
2024/03/03 12:19:11;;;;;;;7.28;3.60;;;11.20;99.90;;;;;;7416823;19;20002;-80
2024/03/03 12:21:41;;;;;;;9.50;4.32;;;11.10;99.90;;;;;;7407192;19;20038;-81
2024/03/03 12:24:30;;;;;;;6.55;3.50;;;11.30;99.90;;;;;;7408538;19;20014;-82
2024/03/03 12:26:59;;;;;;;5.65;3.25;;;11.30;99.90;;;;;;7404636;19;20034;-77
2024/03/03 12:29:33;;;;;;;6.20;2.90;;;11.30;99.90;;;;;;7407308;19;20014;-79
2024/03/03 12:32:07;;;;;;;6.78;3.35;;;11.30;99.90;;;;;;7408637;19;20038;-79
2024/03/03 12:34:39;;;;;;;3.67;2.85;;;11.40;99.90;;;;;;7408191;19;20004;-79
2024/03/03 12:37:14;;;;;;;6.53;2.88;;;11.50;99.90;;;;;;7412438;19;20029;-79
2024/03/03 12:39:48;;;;;;;10.90;2.85;;;11.50;99.90;;;;;;7385421;19;20023;-79
2024/03/03 12:42:18;;;;;;;10.95;2.97;;;11.50;99.90;;;;;;7386468;19;19999;-79
2024/03/03 12:45:05;;;;;;;7.43;2.60;;;11.60;99.90;;;;;;7389819;19;20002;-79
2024/03/03 12:47:34;;;;;;;7.82;2.83;;;11.50;99.90;;;;;;7392122;19;20011;-79
2024/03/03 12:50:07;;;;;;;8.23;2.72;;;11.50;99.90;;;;;;7387347;19;20002;-79
2024/03/03 12:52:43;;;;;;;7.88;2.28;;;11.70;99.90;;;;;;7388393;19;20026;-80
2024/03/03 12:55:17;;;;;;;11.10;3.42;;;11.60;99.90;;;;;;7407850;19;20500;-80
2024/03/03 13:00:42;;;;;;;9.30;2.42;;;11.50;99.90;;;;;;7382434;19;20010;-80
2024/03/03 13:03:11;;;;;;;9.75;2.03;;;11.60;99.90;;;;;;7388897;19;20013;-80
2024/03/03 13:05:42;;;;;;;7.22;2.53;;;11.60;99.90;;;;;;7387699;19;20006;-79
2024/03/03 13:08:20;;;;;;;6.10;2.58;;;11.50;99.90;;;;;;7383167;19;20003;-81
2024/03/03 13:10:53;;;;;;;10.95;2.53;;;11.40;99.90;;;;;;7385522;19;20231;-77
2024/03/03 13:13:25;;;;;;;6.55;2.10;;;11.50;99.90;;;;;;7388755;19;20010;-81
2024/03/03 13:16:01;;;;;;;4.43;2.22;;;11.50;99.90;;;;;;7407533;19;20002;-82
2024/03/03 13:18:31;;;;;;;3.13;2.10;;;11.40;99.90;;;;;;7386618;19;20703;-81
2024/03/03 13:21:11;;;;;;;7.18;2.38;;;11.50;99.90;;;;;;7381666;19;20020;-79
2024/03/03 13:23:41;;;;;;;11.15;2.53;;;11.50;99.90;;;;;;7382093;19;20006;-79
2024/03/03 13:26:11;;;;;;;7.18;2.78;;;11.60;99.90;;;;;;7381503;19;20356;-79
2024/03/03 13:28:41;;;;;;;7.03;2.37;;;11.50;99.90;;;;;;7385835;19;20017;-78
2024/03/03 13:31:13;;;;;;;4.00;1.88;;;11.50;99.90;;;;;;7401996;19;20010;-80
2024/03/03 13:33:47;;;;;;;9.13;2.30;;;11.50;99.90;;;;;;7382581;19;20003;-82
2024/03/03 13:36:30;;;;;;;5.82;1.92;;;11.30;99.90;;;;;;7385733;19;20006;-82
2024/03/03 13:39:09;;;;;;;4.28;1.98;;;11.40;99.90;;;;;;7386382;19;20057;-82
2024/03/03 13:42:04;;;;;;;7.65;2.22;;;11.40;99.90;;;;;;7386236;19;20090;-84
2024/03/03 13:44:35;;;;;;;4.43;2.13;;;11.50;99.90;;;;;;7386113;19;20046;-79
2024/03/03 13:47:06;;;;;;;7.60;2.22;;;11.50;99.90;;;;;;7385481;19;20003;-79
2024/03/03 13:49:44;;;;;;;10.18;2.03;;;11.30;99.90;;;;;;7379354;19;20035;-83
2024/03/03 13:52:12;;;;;;;16.92;2.75;;;11.30;99.90;;;;;;7400687;19;20048;-76
2024/03/03 13:54:43;;;;;;;2.92;1.73;;;11.40;99.90;;;;;;7381657;19;20023;-78
2024/03/03 13:57:12;;;;;;;6.90;1.92;;;11.60;99.90;;;;;;7380678;19;20011;-76
2024/03/03 13:59:41;;;;;;;2.65;1.80;;;11.60;99.90;;;;;;7378266;19;20062;-77
2024/03/03 14:02:13;;;;;;;2.70;1.60;;;11.50;99.90;;;;;;7377825;19;20023;-77
2024/03/03 14:04:42;;;;;;;3.00;1.38;;;11.50;99.90;;;;;;7378661;19;20010;-79
2024/03/03 14:07:11;;;;;;;5.15;1.70;;;11.60;99.90;;;;;;7404138;19;20039;-79
2024/03/03 14:09:40;;;;;;;5.13;1.70;;;11.60;99.90;;;;;;7385271;19;20011;-77
2024/03/03 14:12:09;;;;;;;8.63;1.77;;;11.70;99.90;;;;;;7377659;19;20081;-77
2024/03/03 14:14:38;;;;;;;2.75;1.30;;;11.70;99.90;;;;;;7380530;19;20007;-76
2024/03/03 14:17:07;;;;;;;1.45;1.13;;;11.80;99.90;;;;;;7381102;19;20357;-77
2024/03/03 14:19:38;;;;;;;2.42;1.35;;;11.80;99.90;;;;;;7380638;19;20031;-76
2024/03/03 14:22:09;;;;;;;2.97;1.20;;;11.70;99.90;;;;;;7397266;19;20370;-77
2024/03/03 14:24:39;;;;;;;;;;;11.40;99.90;;;;;;7378401;19;20007;-77
2024/03/03 14:27:11;;;;;;;4.03;1.10;;;11.40;99.90;;;;;;7378224;19;19974;-78
2024/03/03 14:29:46;;;;;;;2.75;1.25;;;11.40;99.90;;;;;;7377569;19;20016;-80
2024/03/03 14:32:14;;;;;;;6.07;1.40;;;11.50;99.90;;;;;;7377397;19;20282;-78
2024/03/03 14:34:46;;;;;;;5.22;1.30;;;11.70;99.90;;;;;;7380791;19;20062;-78
2024/03/03 14:37:18;;;;;;;2.28;1.40;;;11.70;99.90;;;;;;7405469;19;20006;-82
2024/03/03 14:39:46;;;;;;;3.58;1.30;;;11.80;99.90;;;;;;7391507;19;20006;-80
2024/03/03 14:42:17;;;;;;;7.57;1.70;;;11.70;99.90;;;;;;7381489;19;20015;-80
2024/03/03 14:44:46;;;;;;;1.45;1.10;;;11.90;99.90;;;;;;7378759;19;20070;-80
2024/03/03 14:47:15;;;;;;;3.80;1.38;;;12.00;99.90;;;;;;7382378;19;20011;-80
2024/03/03 14:49:46;;;;;;;4.00;1.50;;;12.00;99.90;;;;;;7381996;19;20030;-80
2024/03/03 14:52:15;;;;;;;;;;;11.70;99.90;;;;;;7411062;19;19999;-80
2024/03/03 14:54:46;;;;;;;4.78;1.38;;;11.80;99.90;;;;;;7387626;19;20001;-80
2024/03/03 14:57:15;;;;;;;6.28;1.50;;;11.80;99.90;;;;;;7385069;19;20444;-81
2024/03/03 14:59:46;;;;;;;3.10;1.38;;;11.80;99.90;;;;;;7385687;19;20007;-79
2024/03/03 15:02:16;;;;;;;3.00;1.52;;;11.90;99.90;;;;;;7385201;19;19999;-82
2024/03/03 15:04:47;;;;;;;6.07;1.75;;;12.00;99.90;;;;;;7384935;19;20006;-80
2024/03/03 15:07:16;;;;;;;10.10;1.70;;;12.10;99.90;;;;;;7408865;19;20519;-79
2024/03/03 15:09:45;;;;;;;4.45;1.52;;;11.80;99.90;;;;;;7385735;19;20011;-80
2024/03/03 15:12:14;;;;;;;4.93;1.60;;;11.80;99.90;;;;;;7383231;19;20082;-80
2024/03/03 15:14:44;;;;;;;4.40;1.80;;;11.80;99.90;;;;;;7384366;19;20050;-80
2024/03/03 15:17:21;;;;;;;4.68;2.00;;;12.00;99.90;;;;;;7386705;19;20105;-80
2024/03/03 15:19:52;;;;;;;4.00;1.95;;;12.10;99.90;;;;;;7387011;19;20412;-80
2024/03/03 15:22:21;;;;;;;8.23;2.55;;;12.20;99.90;;;;;;7398530;19;20025;-81
2024/03/03 15:24:50;;;;;;;3.50;1.70;;;12.30;99.90;;;;;;7406953;19;20259;-80
2024/03/03 15:27:19;;;;;;;3.78;1.88;;;12.30;99.90;;;;;;7386985;19;20074;-81
2024/03/03 15:29:48;;;;;;;4.20;2.00;;;12.50;99.90;;;;;;7393155;19;20020;-79